SWA2953 KSAN-KLAS
Flight info
| Callsign | SWA2953 |
|---|---|
| Flight time | 0h 53m |
| Altitude | 29000 |
| Route | PADRZ2 CHKNN DCT SEBBY DCT YELAH DCT MISEN RNDRZ4 |
| Aircraft | B38M/M-SDE1FGHILORVWXY/HB1 |
Departure
| Time | 2026-05-06 21:49 |
|---|---|
| Airport | San Diego International Airport (KSAN) |
Arrival
| Time | 2026-05-06 22:42 |
|---|---|
| Airport | Harry Reid International Airport (KLAS) |
| Time | Latitude | Longitude | Altitude | Speed | Heading |
|---|---|---|---|---|---|
| 2026-05-06 21:20 | 32.73297 | -117.19880 | 27 ft | 0 kts | 97° |
| 2026-05-06 21:37 | 32.73298 | -117.19891 | 27 ft | 3 kts | 97° |
| 2026-05-06 21:38 | 32.73300 | -117.19912 | 27 ft | 3 kts | 96° |
| 2026-05-06 21:38 | 32.73302 | -117.19934 | 27 ft | 3 kts | 96° |
| 2026-05-06 21:38 | 32.73305 | -117.19955 | 28 ft | 3 kts | 96° |
| 2026-05-06 21:38 | 32.73306 | -117.19971 | 28 ft | 0 kts | 104° |
| 2026-05-06 21:43 | 32.73306 | -117.19970 | 28 ft | 0 kts | 98° |
| 2026-05-06 21:43 | 32.73307 | -117.19968 | 28 ft | 1 kts | 80° |
| 2026-05-06 21:43 | 32.73333 | -117.19959 | 28 ft | 8 kts | 344° |
| 2026-05-06 21:43 | 32.73336 | -117.19960 | 28 ft | 0 kts | 344° |
| 2026-05-06 21:44 | 32.73337 | -117.19960 | 28 ft | 0 kts | 344° |
| 2026-05-06 21:44 | 32.73364 | -117.19969 | 29 ft | 10 kts | 351° |
| 2026-05-06 21:44 | 32.73470 | -117.19937 | 29 ft | 20 kts | 51° |
| 2026-05-06 21:44 | 32.73441 | -117.19742 | 29 ft | 31 kts | 105° |
| 2026-05-06 21:45 | 32.73368 | -117.19445 | 29 ft | 43 kts | 106° |
| 2026-05-06 21:45 | 32.73275 | -117.19057 | 28 ft | 41 kts | 106° |
| 2026-05-06 21:45 | 32.73199 | -117.18738 | 28 ft | 41 kts | 105° |
| 2026-05-06 21:45 | 32.73118 | -117.18408 | 28 ft | 43 kts | 106° |
| 2026-05-06 21:46 | 32.73060 | -117.18163 | 25 ft | 9 kts | 95° |
| 2026-05-06 21:46 | 32.73060 | -117.18161 | 26 ft | 0 kts | 94° |
| 2026-05-06 21:46 | 32.73054 | -117.18139 | 25 ft | 8 kts | 108° |
| 2026-05-06 21:46 | 32.73011 | -117.17968 | 26 ft | 29 kts | 106° |
| 2026-05-06 21:47 | 32.72951 | -117.17737 | 25 ft | 21 kts | 102° |
| 2026-05-06 21:47 | 32.72952 | -117.17699 | 24 ft | 0 kts | 79° |
| 2026-05-06 21:48 | 32.72952 | -117.17694 | 24 ft | 2 kts | 79° |
| 2026-05-06 21:48 | 32.72969 | -117.17630 | 27 ft | 16 kts | 58° |
| 2026-05-06 21:48 | 32.73041 | -117.17668 | 29 ft | 18 kts | 286° |
| 2026-05-06 21:48 | 32.73088 | -117.17863 | 29 ft | 51 kts | 286° |
| 2026-05-06 21:49 | 32.73269 | -117.18612 | 29 ft | 135 kts | 285° |
| 2026-05-06 21:49 | 32.73591 | -117.19900 | 298 ft | 186 kts | 284° |
| 2026-05-06 21:49 | 32.73982 | -117.21482 | 1208 ft | 206 kts | 290° |
| 2026-05-06 21:49 | 32.74666 | -117.22963 | 2446 ft | 211 kts | 307° |
| 2026-05-06 21:50 | 32.75589 | -117.24412 | 3301 ft | 225 kts | 308° |
| 2026-05-06 21:50 | 32.76520 | -117.25957 | 4248 ft | 236 kts | 307° |
| 2026-05-06 21:50 | 32.77472 | -117.27611 | 5127 ft | 247 kts | 307° |
| 2026-05-06 21:50 | 32.78454 | -117.29293 | 6162 ft | 250 kts | 307° |
| 2026-05-06 21:51 | 32.79460 | -117.30998 | 7108 ft | 254 kts | 308° |
| 2026-05-06 21:51 | 32.80525 | -117.32683 | 8055 ft | 256 kts | 310° |
| 2026-05-06 21:51 | 32.81615 | -117.34370 | 9007 ft | 259 kts | 310° |
| 2026-05-06 21:51 | 32.82722 | -117.36086 | 9916 ft | 265 kts | 310° |
| 2026-05-06 21:52 | 32.83844 | -117.37828 | 10808 ft | 269 kts | 310° |
| 2026-05-06 21:52 | 32.85023 | -117.39661 | 11350 ft | 289 kts | 310° |
| 2026-05-06 21:52 | 32.86286 | -117.41626 | 11809 ft | 310 kts | 310° |
| 2026-05-06 21:52 | 32.87635 | -117.43725 | 12232 ft | 330 kts | 310° |
| 2026-05-06 21:53 | 32.89066 | -117.45953 | 12644 ft | 349 kts | 310° |
| 2026-05-06 21:53 | 32.90568 | -117.48293 | 13181 ft | 362 kts | 310° |
| 2026-05-06 21:53 | 32.92107 | -117.50693 | 13970 ft | 365 kts | 310° |
| 2026-05-06 21:53 | 32.93659 | -117.53109 | 14673 ft | 370 kts | 310° |
| 2026-05-06 21:54 | 32.95232 | -117.55559 | 15379 ft | 374 kts | 310° |
| 2026-05-06 21:54 | 32.96820 | -117.58035 | 16074 ft | 378 kts | 310° |
| 2026-05-06 21:54 | 32.98424 | -117.60539 | 16747 ft | 382 kts | 310° |
| 2026-05-06 21:54 | 33.00045 | -117.63070 | 17415 ft | 387 kts | 311° |
| 2026-05-06 21:55 | 33.01686 | -117.65632 | 18064 ft | 391 kts | 311° |
| 2026-05-06 21:55 | 33.03335 | -117.68211 | 18658 ft | 395 kts | 311° |
| 2026-05-06 21:55 | 33.05007 | -117.70827 | 19249 ft | 398 kts | 311° |
| 2026-05-06 21:55 | 33.06793 | -117.73346 | 19814 ft | 397 kts | 321° |
| 2026-05-06 21:56 | 33.08907 | -117.75455 | 20385 ft | 398 kts | 323° |
| 2026-05-06 21:56 | 33.11011 | -117.77634 | 20941 ft | 402 kts | 323° |
| 2026-05-06 21:56 | 33.13134 | -117.79814 | 21519 ft | 404 kts | 323° |
| 2026-05-06 21:56 | 33.15276 | -117.82001 | 22073 ft | 407 kts | 323° |
| 2026-05-06 21:57 | 33.17437 | -117.84204 | 22626 ft | 410 kts | 323° |
| 2026-05-06 21:57 | 33.19629 | -117.86404 | 23153 ft | 412 kts | 324° |
| 2026-05-06 21:57 | 33.21856 | -117.88564 | 23681 ft | 415 kts | 324° |
| 2026-05-06 21:57 | 33.24104 | -117.90753 | 24125 ft | 418 kts | 324° |
| 2026-05-06 21:58 | 33.26361 | -117.92956 | 24567 ft | 421 kts | 325° |
| 2026-05-06 21:58 | 33.28636 | -117.95179 | 24999 ft | 424 kts | 325° |
| 2026-05-06 21:58 | 33.30926 | -117.97419 | 25426 ft | 427 kts | 325° |
| 2026-05-06 21:58 | 33.33226 | -117.99671 | 25838 ft | 429 kts | 325° |
| 2026-05-06 21:59 | 33.35545 | -118.01942 | 26245 ft | 432 kts | 325° |
| 2026-05-06 21:59 | 33.37879 | -118.04231 | 26648 ft | 435 kts | 325° |
| 2026-05-06 21:59 | 33.40228 | -118.06534 | 27037 ft | 438 kts | 325° |
| 2026-05-06 21:59 | 33.42580 | -118.08845 | 27416 ft | 441 kts | 325° |
| 2026-05-06 22:00 | 33.44952 | -118.11175 | 27801 ft | 443 kts | 325° |
| 2026-05-06 22:00 | 33.47346 | -118.13528 | 28197 ft | 446 kts | 326° |
| 2026-05-06 22:00 | 33.49750 | -118.15894 | 28578 ft | 449 kts | 326° |
| 2026-05-06 22:00 | 33.52168 | -118.18274 | 28947 ft | 452 kts | 326° |
| 2026-05-06 22:01 | 33.54609 | -118.20680 | 29131 ft | 456 kts | 326° |
| 2026-05-06 22:01 | 33.57096 | -118.23064 | 29105 ft | 457 kts | 330° |
| 2026-05-06 22:01 | 33.62700 | -118.26392 | 29091 ft | 450 kts | 339° |
| 2026-05-06 22:02 | 33.68440 | -118.29311 | 29088 ft | 443 kts | 351° |
| 2026-05-06 22:02 | 33.71458 | -118.29714 | 29101 ft | 434 kts | 5° |
| 2026-05-06 22:02 | 33.74421 | -118.29166 | 29100 ft | 429 kts | 19° |
| 2026-05-06 22:03 | 33.77160 | -118.27775 | 29114 ft | 427 kts | 30° |
| 2026-05-06 22:03 | 33.79597 | -118.25751 | 29092 ft | 427 kts | 41° |
| 2026-05-06 22:03 | 33.83507 | -118.20400 | 29080 ft | 427 kts | 51° |
| 2026-05-06 22:04 | 33.87074 | -118.14701 | 29082 ft | 427 kts | 52° |
| 2026-05-06 22:04 | 33.89974 | -118.09882 | 29074 ft | 427 kts | 53° |
| 2026-05-06 22:05 | 33.93428 | -118.04062 | 29068 ft | 428 kts | 53° |
| 2026-05-06 22:05 | 33.96858 | -117.98260 | 29072 ft | 429 kts | 53° |
| 2026-05-06 22:06 | 34.00314 | -117.92404 | 29075 ft | 429 kts | 53° |
| 2026-05-06 22:06 | 34.03775 | -117.86531 | 29088 ft | 429 kts | 53° |
| 2026-05-06 22:07 | 34.07228 | -117.80660 | 29078 ft | 429 kts | 53° |
| 2026-05-06 22:07 | 34.10908 | -117.75003 | 29092 ft | 429 kts | 49° |
| 2026-05-06 22:08 | 34.14722 | -117.69483 | 29081 ft | 429 kts | 49° |
| 2026-05-06 22:08 | 34.18516 | -117.63931 | 29077 ft | 429 kts | 50° |
| 2026-05-06 22:09 | 34.22313 | -117.58363 | 29106 ft | 430 kts | 49° |
| 2026-05-06 22:09 | 34.26112 | -117.52778 | 29071 ft | 430 kts | 50° |
| 2026-05-06 22:10 | 34.29911 | -117.47186 | 29078 ft | 430 kts | 50° |
| 2026-05-06 22:10 | 34.33681 | -117.41628 | 29058 ft | 427 kts | 49° |
| 2026-05-06 22:11 | 34.37445 | -117.36071 | 29053 ft | 427 kts | 50° |
| 2026-05-06 22:11 | 34.41211 | -117.30502 | 29039 ft | 427 kts | 50° |
| 2026-05-06 22:12 | 34.44977 | -117.24925 | 29036 ft | 427 kts | 50° |
| 2026-05-06 22:12 | 34.48759 | -117.19314 | 29083 ft | 436 kts | 50° |
| 2026-05-06 22:13 | 34.52606 | -117.13598 | 29035 ft | 438 kts | 50° |
| 2026-05-06 22:13 | 34.56450 | -117.07877 | 29012 ft | 438 kts | 50° |
| 2026-05-06 22:14 | 34.60305 | -117.02131 | 29025 ft | 439 kts | 50° |
| 2026-05-06 22:14 | 34.64148 | -116.96392 | 29021 ft | 439 kts | 50° |
| 2026-05-06 22:15 | 34.67994 | -116.90641 | 29040 ft | 439 kts | 50° |
| 2026-05-06 22:15 | 34.71841 | -116.84878 | 29041 ft | 439 kts | 50° |
| 2026-05-06 22:16 | 34.75684 | -116.79112 | 29043 ft | 439 kts | 50° |
| 2026-05-06 22:16 | 34.79522 | -116.73345 | 29046 ft | 439 kts | 50° |
| 2026-05-06 22:17 | 34.83358 | -116.67573 | 29046 ft | 439 kts | 50° |
| 2026-05-06 22:17 | 34.87658 | -116.62355 | 29050 ft | 438 kts | 38° |
| 2026-05-06 22:18 | 34.92416 | -116.57706 | 29031 ft | 439 kts | 38° |
| 2026-05-06 22:18 | 34.97170 | -116.53088 | 29022 ft | 434 kts | 38° |
| 2026-05-06 22:19 | 35.01857 | -116.48537 | 28874 ft | 429 kts | 38° |
| 2026-05-06 22:19 | 35.04186 | -116.46273 | 28619 ft | 429 kts | 38° |
| 2026-05-06 22:19 | 35.06522 | -116.44001 | 28360 ft | 430 kts | 38° |
| 2026-05-06 22:20 | 35.08860 | -116.41725 | 28120 ft | 430 kts | 38° |
| 2026-05-06 22:20 | 35.11080 | -116.39276 | 27815 ft | 431 kts | 46° |
| 2026-05-06 22:20 | 35.13143 | -116.36614 | 27341 ft | 431 kts | 45° |
| 2026-05-06 22:20 | 35.15203 | -116.33965 | 26817 ft | 433 kts | 46° |
| 2026-05-06 22:21 | 35.17278 | -116.31286 | 26285 ft | 434 kts | 46° |
| 2026-05-06 22:21 | 35.19302 | -116.28668 | 25781 ft | 413 kts | 46° |
| 2026-05-06 22:21 | 35.21230 | -116.26172 | 25288 ft | 395 kts | 45° |
| 2026-05-06 22:21 | 35.23054 | -116.23745 | 24779 ft | 381 kts | 47° |
| 2026-05-06 22:22 | 35.24771 | -116.21393 | 24259 ft | 370 kts | 46° |
| 2026-05-06 22:22 | 35.26470 | -116.19073 | 23743 ft | 366 kts | 46° |
| 2026-05-06 22:22 | 35.28171 | -116.16754 | 23166 ft | 368 kts | 46° |
| 2026-05-06 22:22 | 35.29881 | -116.14420 | 22547 ft | 367 kts | 46° |
| 2026-05-06 22:23 | 35.31583 | -116.12096 | 21964 ft | 365 kts | 47° |
| 2026-05-06 22:23 | 35.33259 | -116.09796 | 21374 ft | 362 kts | 47° |
| 2026-05-06 22:23 | 35.34933 | -116.07496 | 20854 ft | 360 kts | 47° |
| 2026-05-06 22:23 | 35.36596 | -116.05211 | 20371 ft | 358 kts | 47° |
| 2026-05-06 22:24 | 35.38249 | -116.02938 | 19928 ft | 357 kts | 47° |
| 2026-05-06 22:24 | 35.39895 | -116.00673 | 19508 ft | 355 kts | 47° |
| 2026-05-06 22:24 | 35.41531 | -115.98421 | 19075 ft | 353 kts | 47° |
| 2026-05-06 22:24 | 35.43158 | -115.96179 | 18641 ft | 351 kts | 47° |
| 2026-05-06 22:25 | 35.44776 | -115.93946 | 18207 ft | 350 kts | 47° |
| 2026-05-06 22:25 | 35.46390 | -115.91721 | 17714 ft | 349 kts | 47° |
| 2026-05-06 22:25 | 35.48000 | -115.89498 | 17222 ft | 348 kts | 47° |
| 2026-05-06 22:25 | 35.49600 | -115.87287 | 16761 ft | 347 kts | 47° |
| 2026-05-06 22:26 | 35.51200 | -115.85076 | 16292 ft | 346 kts | 47° |
| 2026-05-06 22:26 | 35.52799 | -115.82864 | 15827 ft | 345 kts | 47° |
| 2026-05-06 22:26 | 35.54389 | -115.80663 | 15376 ft | 344 kts | 47° |
| 2026-05-06 22:26 | 35.55971 | -115.78472 | 14925 ft | 343 kts | 48° |
| 2026-05-06 22:27 | 35.57547 | -115.76287 | 14498 ft | 341 kts | 48° |
| 2026-05-06 22:27 | 35.59123 | -115.74112 | 14064 ft | 340 kts | 47° |
| 2026-05-06 22:27 | 35.60713 | -115.71972 | 13596 ft | 338 kts | 47° |
| 2026-05-06 22:27 | 35.62291 | -115.69844 | 13144 ft | 336 kts | 47° |
| 2026-05-06 22:28 | 35.63846 | -115.67743 | 13013 ft | 327 kts | 47° |
| 2026-05-06 22:28 | 35.65371 | -115.65681 | 13014 ft | 327 kts | 47° |
| 2026-05-06 22:28 | 35.66903 | -115.63608 | 13010 ft | 327 kts | 47° |
| 2026-05-06 22:28 | 35.68435 | -115.61534 | 13018 ft | 327 kts | 47° |
| 2026-05-06 22:29 | 35.69962 | -115.59464 | 13000 ft | 327 kts | 47° |
| 2026-05-06 22:29 | 35.71491 | -115.57392 | 13001 ft | 327 kts | 47° |
| 2026-05-06 22:29 | 35.73094 | -115.55411 | 12984 ft | 326 kts | 36° |
| 2026-05-06 22:29 | 35.75053 | -115.54018 | 13015 ft | 327 kts | 30° |
| 2026-05-06 22:30 | 35.77030 | -115.52635 | 12993 ft | 327 kts | 30° |
| 2026-05-06 22:30 | 35.79003 | -115.51252 | 13019 ft | 327 kts | 30° |
| 2026-05-06 22:30 | 35.80978 | -115.49867 | 13013 ft | 326 kts | 30° |
| 2026-05-06 22:30 | 35.82949 | -115.48486 | 13015 ft | 327 kts | 30° |
| 2026-05-06 22:31 | 35.84921 | -115.47103 | 13007 ft | 327 kts | 30° |
| 2026-05-06 22:31 | 35.86900 | -115.45713 | 13006 ft | 328 kts | 30° |
| 2026-05-06 22:31 | 35.88881 | -115.44322 | 12969 ft | 328 kts | 30° |
| 2026-05-06 22:31 | 35.90864 | -115.42930 | 12581 ft | 327 kts | 29° |
| 2026-05-06 22:32 | 35.92841 | -115.41552 | 12200 ft | 325 kts | 29° |
| 2026-05-06 22:32 | 35.94804 | -115.40182 | 11928 ft | 325 kts | 29° |
| 2026-05-06 22:32 | 35.96756 | -115.38819 | 11666 ft | 322 kts | 29° |
| 2026-05-06 22:32 | 35.98717 | -115.37449 | 11406 ft | 323 kts | 29° |
| 2026-05-06 22:33 | 36.00466 | -115.35767 | 11118 ft | 319 kts | 50° |
| 2026-05-06 22:33 | 36.01420 | -115.33329 | 10845 ft | 317 kts | 77° |
| 2026-05-06 22:33 | 36.01443 | -115.30658 | 10574 ft | 307 kts | 93° |
| 2026-05-06 22:33 | 36.01271 | -115.28093 | 10321 ft | 293 kts | 90° |
| 2026-05-06 22:34 | 36.01147 | -115.25634 | 10097 ft | 280 kts | 89° |
| 2026-05-06 22:34 | 36.01031 | -115.23313 | 9880 ft | 265 kts | 89° |
| 2026-05-06 22:34 | 36.00920 | -115.21086 | 9586 ft | 255 kts | 89° |
| 2026-05-06 22:34 | 36.00812 | -115.18933 | 9288 ft | 249 kts | 89° |
| 2026-05-06 22:35 | 36.00706 | -115.16806 | 9015 ft | 248 kts | 89° |
| 2026-05-06 22:35 | 36.00598 | -115.14682 | 8731 ft | 248 kts | 90° |
| 2026-05-06 22:35 | 36.00491 | -115.12564 | 8509 ft | 247 kts | 90° |
| 2026-05-06 22:35 | 36.00385 | -115.10454 | 8298 ft | 245 kts | 90° |
| 2026-05-06 22:36 | 36.00278 | -115.08358 | 8095 ft | 244 kts | 90° |
| 2026-05-06 22:36 | 36.00173 | -115.06282 | 8007 ft | 241 kts | 90° |
| 2026-05-06 22:36 | 36.00069 | -115.04263 | 8008 ft | 229 kts | 90° |
| 2026-05-06 22:36 | 35.99970 | -115.02341 | 8024 ft | 221 kts | 90° |
| 2026-05-06 22:37 | 35.99914 | -115.00451 | 8015 ft | 219 kts | 86° |
| 2026-05-06 22:37 | 36.00248 | -114.98682 | 7946 ft | 208 kts | 56° |
| 2026-05-06 22:37 | 36.01211 | -114.97411 | 7956 ft | 199 kts | 30° |
| 2026-05-06 22:37 | 36.02416 | -114.96758 | 7959 ft | 184 kts | 16° |
| 2026-05-06 22:38 | 36.03626 | -114.96300 | 7902 ft | 181 kts | 19° |
| 2026-05-06 22:38 | 36.04674 | -114.95453 | 7775 ft | 181 kts | 34° |
| 2026-05-06 22:38 | 36.05819 | -114.94914 | 7582 ft | 176 kts | 1° |
| 2026-05-06 22:38 | 36.06946 | -114.95327 | 7309 ft | 171 kts | 326° |
| 2026-05-06 22:39 | 36.07640 | -114.96508 | 6806 ft | 176 kts | 289° |
| 2026-05-06 22:39 | 36.07638 | -114.98039 | 6130 ft | 184 kts | 258° |
| 2026-05-06 22:39 | 36.07394 | -114.99598 | 5374 ft | 187 kts | 266° |
| 2026-05-06 22:39 | 36.07348 | -115.01220 | 4568 ft | 192 kts | 271° |
| 2026-05-06 22:40 | 36.07360 | -115.02878 | 3878 ft | 191 kts | 272° |
| 2026-05-06 22:40 | 36.07361 | -115.04423 | 3669 ft | 173 kts | 272° |
| 2026-05-06 22:40 | 36.07361 | -115.05884 | 3396 ft | 167 kts | 271° |
| 2026-05-06 22:40 | 36.07361 | -115.07307 | 3143 ft | 165 kts | 271° |
| 2026-05-06 22:41 | 36.07392 | -115.10125 | 2629 ft | 163 kts | 270° |
| 2026-05-06 22:41 | 36.07374 | -115.11542 | 2346 ft | 165 kts | 268° |
| 2026-05-06 22:41 | 36.07370 | -115.12948 | 2148 ft | 160 kts | 269° |
| 2026-05-06 22:42 | 36.07364 | -115.14147 | 2127 ft | 111 kts | 270° |
| 2026-05-06 22:42 | 36.07364 | -115.14910 | 2128 ft | 81 kts | 270° |
| 2026-05-06 22:42 | 36.07391 | -115.15309 | 2124 ft | 36 kts | 286° |
| 2026-05-06 22:42 | 36.07469 | -115.15509 | 2128 ft | 15 kts | 299° |
| 2026-05-06 22:43 | 36.07502 | -115.15573 | 2128 ft | 5 kts | 308° |
| 2026-05-06 22:43 | 36.07513 | -115.15590 | 2125 ft | 2 kts | 309° |
| 2026-05-06 22:43 | 36.07521 | -115.15601 | 2125 ft | 0 kts | 313° |
| 2026-05-06 22:44 | 36.07524 | -115.15604 | 2125 ft | 3 kts | 314° |
| 2026-05-06 22:44 | 36.07584 | -115.15678 | 2127 ft | 21 kts | 313° |
| 2026-05-06 22:44 | 36.07732 | -115.15821 | 2129 ft | 24 kts | 353° |
| 2026-05-06 22:44 | 36.07805 | -115.15714 | 2126 ft | 18 kts | 98° |
| 2026-05-06 22:45 | 36.07805 | -115.15559 | 2128 ft | 18 kts | 88° |
| 2026-05-06 22:45 | 36.07807 | -115.15406 | 2131 ft | 18 kts | 92° |
| 2026-05-06 22:45 | 36.07804 | -115.15247 | 2129 ft | 20 kts | 91° |
| 2026-05-06 22:45 | 36.07800 | -115.15060 | 2128 ft | 23 kts | 95° |
| 2026-05-06 22:46 | 36.07788 | -115.14863 | 2127 ft | 24 kts | 96° |
| 2026-05-06 22:46 | 36.07819 | -115.14731 | 2125 ft | 13 kts | 13° |
| 2026-05-06 22:46 | 36.07912 | -115.14744 | 2125 ft | 14 kts | 329° |
| 2026-05-06 22:46 | 36.07990 | -115.14779 | 2121 ft | 7 kts | 19° |
| 2026-05-06 22:47 | 36.08014 | -115.14750 | 2121 ft | 8 kts | 55° |
| 2026-05-06 22:47 | 36.08025 | -115.14730 | 2120 ft | 0 kts | 56° |